sensor_id;sensor_type;location;lat;lon;timestamp;P1;durP1;ratioP1;P2;durP2;ratioP2
29500;SDS011;16450;50.288;10.966;2022-08-16T00:01:32;3.50;;;2.90;;
29500;SDS011;16450;50.288;10.966;2022-08-16T00:04:33;4.57;;;3.13;;
29500;SDS011;16450;50.288;10.966;2022-08-16T00:07:33;3.73;;;3.00;;
29500;SDS011;16450;50.288;10.966;2022-08-16T00:10:35;4.10;;;3.27;;
29500;SDS011;16450;50.288;10.966;2022-08-16T00:13:36;3.67;;;3.27;;
29500;SDS011;16450;50.288;10.966;2022-08-16T00:16:37;4.87;;;3.43;;
29500;SDS011;16450;50.288;10.966;2022-08-16T00:19:38;4.47;;;3.90;;
29500;SDS011;16450;50.288;10.966;2022-08-16T00:22:40;5.33;;;3.43;;
29500;SDS011;16450;50.288;10.966;2022-08-16T00:25:41;6.30;;;3.43;;
29500;SDS011;16450;50.288;10.966;2022-08-16T00:28:42;5.93;;;3.63;;
29500;SDS011;16450;50.288;10.966;2022-08-16T00:31:44;5.53;;;3.47;;
29500;SDS011;16450;50.288;10.966;2022-08-16T00:34:50;4.73;;;3.43;;
29500;SDS011;16450;50.288;10.966;2022-08-16T00:37:50;3.67;;;3.27;;
29500;SDS011;16450;50.288;10.966;2022-08-16T00:40:52;4.50;;;3.27;;
29500;SDS011;16450;50.288;10.966;2022-08-16T00:43:53;6.53;;;3.57;;
29500;SDS011;16450;50.288;10.966;2022-08-16T00:46:55;4.33;;;3.23;;
29500;SDS011;16450;50.288;10.966;2022-08-16T00:50:00;4.50;;;3.43;;
29500;SDS011;16450;50.288;10.966;2022-08-16T00:53:01;5.13;;;3.60;;
29500;SDS011;16450;50.288;10.966;2022-08-16T00:56:04;5.10;;;3.77;;
29500;SDS011;16450;50.288;10.966;2022-08-16T00:59:09;5.30;;;3.50;;
29500;SDS011;16450;50.288;10.966;2022-08-16T01:02:11;4.53;;;3.60;;
29500;SDS011;16450;50.288;10.966;2022-08-16T01:05:12;5.53;;;3.70;;
29500;SDS011;16450;50.288;10.966;2022-08-16T01:08:13;4.40;;;3.67;;
29500;SDS011;16450;50.288;10.966;2022-08-16T01:11:18;5.60;;;3.50;;
29500;SDS011;16450;50.288;10.966;2022-08-16T01:14:20;4.43;;;3.33;;
29500;SDS011;16450;50.288;10.966;2022-08-16T01:17:23;5.47;;;3.67;;
29500;SDS011;16450;50.288;10.966;2022-08-16T01:20:26;5.43;;;3.50;;
29500;SDS011;16450;50.288;10.966;2022-08-16T01:27:00;4.50;;;3.70;;
29500;SDS011;16450;50.288;10.966;2022-08-16T01:30:15;4.50;;;3.53;;
29500;SDS011;16450;50.288;10.966;2022-08-16T01:33:19;5.07;;;3.60;;
29500;SDS011;16450;50.288;10.966;2022-08-16T01:36:20;6.43;;;3.70;;
29500;SDS011;16450;50.288;10.966;2022-08-16T01:39:21;4.53;;;3.43;;
29500;SDS011;16450;50.288;10.966;2022-08-16T01:42:22;3.90;;;3.50;;
29500;SDS011;16450;50.288;10.966;2022-08-16T01:45:23;5.20;;;3.77;;
29500;SDS011;16450;50.288;10.966;2022-08-16T01:48:26;5.27;;;3.87;;
29500;SDS011;16450;50.288;10.966;2022-08-16T01:51:30;5.77;;;4.30;;
29500;SDS011;16450;50.288;10.966;2022-08-16T01:54:31;5.53;;;3.63;;
29500;SDS011;16450;50.288;10.966;2022-08-16T01:57:31;5.47;;;4.10;;
29500;SDS011;16450;50.288;10.966;2022-08-16T02:00:32;6.60;;;3.60;;
29500;SDS011;16450;50.288;10.966;2022-08-16T02:03:33;5.43;;;3.83;;
29500;SDS011;16450;50.288;10.966;2022-08-16T02:06:33;4.57;;;3.70;;
29500;SDS011;16450;50.288;10.966;2022-08-16T02:09:35;4.30;;;3.73;;
29500;SDS011;16450;50.288;10.966;2022-08-16T02:12:37;5.27;;;3.50;;
29500;SDS011;16450;50.288;10.966;2022-08-16T02:15:37;7.20;;;3.90;;
29500;SDS011;16450;50.288;10.966;2022-08-16T02:18:40;4.10;;;3.53;;
29500;SDS011;16450;50.288;10.966;2022-08-16T02:21:40;4.07;;;3.60;;
29500;SDS011;16450;50.288;10.966;2022-08-16T02:24:42;4.73;;;3.33;;
29500;SDS011;16450;50.288;10.966;2022-08-16T02:27:43;5.03;;;3.50;;
29500;SDS011;16450;50.288;10.966;2022-08-16T02:30:45;5.83;;;3.70;;
29500;SDS011;16450;50.288;10.966;2022-08-16T02:33:46;3.70;;;3.30;;
29500;SDS011;16450;50.288;10.966;2022-08-16T02:36:47;4.67;;;3.60;;
29500;SDS011;16450;50.288;10.966;2022-08-16T02:39:48;4.80;;;3.40;;
29500;SDS011;16450;50.288;10.966;2022-08-16T02:42:50;6.63;;;3.90;;
29500;SDS011;16450;50.288;10.966;2022-08-16T02:45:51;3.90;;;3.37;;
29500;SDS011;16450;50.288;10.966;2022-08-16T02:48:52;4.23;;;3.60;;
29500;SDS011;16450;50.288;10.966;2022-08-16T02:51:52;4.97;;;3.67;;
29500;SDS011;16450;50.288;10.966;2022-08-16T02:54:53;5.57;;;3.43;;
29500;SDS011;16450;50.288;10.966;2022-08-16T02:57:53;4.97;;;3.53;;
29500;SDS011;16450;50.288;10.966;2022-08-16T03:00:54;5.00;;;3.87;;
29500;SDS011;16450;50.288;10.966;2022-08-16T03:03:56;4.77;;;3.60;;
29500;SDS011;16450;50.288;10.966;2022-08-16T03:07:00;4.37;;;3.83;;
29500;SDS011;16450;50.288;10.966;2022-08-16T03:10:01;6.27;;;3.73;;
29500;SDS011;16450;50.288;10.966;2022-08-16T03:13:03;8.10;;;4.10;;
29500;SDS011;16450;50.288;10.966;2022-08-16T03:16:05;5.57;;;3.80;;
29500;SDS011;16450;50.288;10.966;2022-08-16T03:19:06;8.07;;;3.80;;
29500;SDS011;16450;50.288;10.966;2022-08-16T03:22:07;6.87;;;3.87;;
29500;SDS011;16450;50.288;10.966;2022-08-16T03:25:09;4.17;;;3.60;;
29500;SDS011;16450;50.288;10.966;2022-08-16T03:28:14;5.03;;;3.80;;
29500;SDS011;16450;50.288;10.966;2022-08-16T03:31:14;4.47;;;3.87;;
29500;SDS011;16450;50.288;10.966;2022-08-16T03:34:15;4.70;;;3.70;;
29500;SDS011;16450;50.288;10.966;2022-08-16T03:37:15;4.87;;;3.50;;
29500;SDS011;16450;50.288;10.966;2022-08-16T03:40:16;5.30;;;3.77;;
29500;SDS011;16450;50.288;10.966;2022-08-16T03:43:17;5.60;;;4.13;;
29500;SDS011;16450;50.288;10.966;2022-08-16T03:46:18;4.97;;;3.93;;
29500;SDS011;16450;50.288;10.966;2022-08-16T03:49:21;5.73;;;4.10;;
29500;SDS011;16450;50.288;10.966;2022-08-16T03:52:23;5.43;;;4.07;;
29500;SDS011;16450;50.288;10.966;2022-08-16T03:55:24;6.60;;;3.80;;
29500;SDS011;16450;50.288;10.966;2022-08-16T03:58:25;5.30;;;4.20;;
29500;SDS011;16450;50.288;10.966;2022-08-16T04:01:25;7.93;;;3.83;;
29500;SDS011;16450;50.288;10.966;2022-08-16T04:04:27;6.80;;;4.10;;
29500;SDS011;16450;50.288;10.966;2022-08-16T04:07:28;6.87;;;4.43;;
29500;SDS011;16450;50.288;10.966;2022-08-16T04:10:29;5.73;;;4.20;;
29500;SDS011;16450;50.288;10.966;2022-08-16T04:13:30;5.37;;;3.77;;
29500;SDS011;16450;50.288;10.966;2022-08-16T04:16:30;6.17;;;4.40;;
29500;SDS011;16450;50.288;10.966;2022-08-16T04:19:31;6.10;;;4.00;;
29500;SDS011;16450;50.288;10.966;2022-08-16T04:22:34;6.23;;;4.07;;
29500;SDS011;16450;50.288;10.966;2022-08-16T04:25:36;5.90;;;4.10;;
29500;SDS011;16450;50.288;10.966;2022-08-16T04:28:37;5.40;;;4.13;;
29500;SDS011;16450;50.288;10.966;2022-08-16T04:31:37;6.13;;;4.30;;
29500;SDS011;16450;50.288;10.966;2022-08-16T04:34:38;4.43;;;3.57;;
29500;SDS011;16450;50.288;10.966;2022-08-16T04:37:39;5.67;;;4.20;;
29500;SDS011;16450;50.288;10.966;2022-08-16T04:40:40;5.73;;;3.83;;
29500;SDS011;16450;50.288;10.966;2022-08-16T04:43:41;9.03;;;4.30;;
29500;SDS011;16450;50.288;10.966;2022-08-16T04:46:41;6.73;;;3.90;;
29500;SDS011;16450;50.288;10.966;2022-08-16T04:49:42;5.90;;;4.30;;
29500;SDS011;16450;50.288;10.966;2022-08-16T04:52:44;6.67;;;3.83;;
29500;SDS011;16450;50.288;10.966;2022-08-16T04:55:46;6.67;;;3.67;;
29500;SDS011;16450;50.288;10.966;2022-08-16T04:58:46;7.57;;;4.20;;
29500;SDS011;16450;50.288;10.966;2022-08-16T05:01:47;5.23;;;3.93;;
29500;SDS011;16450;50.288;10.966;2022-08-16T05:04:48;6.63;;;4.20;;
29500;SDS011;16450;50.288;10.966;2022-08-16T05:07:48;6.83;;;4.30;;
29500;SDS011;16450;50.288;10.966;2022-08-16T05:10:49;8.60;;;4.53;;
29500;SDS011;16450;50.288;10.966;2022-08-16T05:13:50;8.23;;;4.40;;
29500;SDS011;16450;50.288;10.966;2022-08-16T05:16:50;8.47;;;4.23;;
29500;SDS011;16450;50.288;10.966;2022-08-16T05:19:51;5.77;;;4.27;;
29500;SDS011;16450;50.288;10.966;2022-08-16T05:22:53;6.57;;;4.20;;
29500;SDS011;16450;50.288;10.966;2022-08-16T05:25:53;7.00;;;4.50;;
29500;SDS011;16450;50.288;10.966;2022-08-16T05:28:55;6.17;;;4.23;;
29500;SDS011;16450;50.288;10.966;2022-08-16T05:31:56;6.83;;;4.13;;
29500;SDS011;16450;50.288;10.966;2022-08-16T05:34:57;6.80;;;4.00;;
29500;SDS011;16450;50.288;10.966;2022-08-16T05:37:57;6.03;;;4.10;;
29500;SDS011;16450;50.288;10.966;2022-08-16T05:40:58;8.43;;;4.03;;
29500;SDS011;16450;50.288;10.966;2022-08-16T05:44:00;8.67;;;4.67;;
29500;SDS011;16450;50.288;10.966;2022-08-16T05:47:01;8.63;;;3.80;;
29500;SDS011;16450;50.288;10.966;2022-08-16T05:50:02;8.23;;;3.60;;
29500;SDS011;16450;50.288;10.966;2022-08-16T05:53:04;4.63;;;3.40;;
29500;SDS011;16450;50.288;10.966;2022-08-16T05:56:05;5.15;;;3.30;;
29500;SDS011;16450;50.288;10.966;2022-08-16T05:59:06;4.45;;;2.88;;
29500;SDS011;16450;50.288;10.966;2022-08-16T06:02:07;5.20;;;2.88;;
29500;SDS011;16450;50.288;10.966;2022-08-16T06:05:08;4.30;;;2.90;;
29500;SDS011;16450;50.288;10.966;2022-08-16T06:08:09;3.92;;;2.78;;
29500;SDS011;16450;50.288;10.966;2022-08-16T06:11:10;3.47;;;2.67;;
29500;SDS011;16450;50.288;10.966;2022-08-16T06:14:11;4.63;;;2.67;;
29500;SDS011;16450;50.288;10.966;2022-08-16T06:17:12;5.30;;;2.63;;
29500;SDS011;16450;50.288;10.966;2022-08-16T06:20:16;3.35;;;2.60;;
29500;SDS011;16450;50.288;10.966;2022-08-16T06:23:20;4.22;;;2.60;;
29500;SDS011;16450;50.288;10.966;2022-08-16T06:26:22;4.30;;;2.72;;
29500;SDS011;16450;50.288;10.966;2022-08-16T06:29:23;5.82;;;3.00;;
29500;SDS011;16450;50.288;10.966;2022-08-16T06:32:23;4.28;;;2.83;;
29500;SDS011;16450;50.288;10.966;2022-08-16T06:35:24;4.35;;;2.58;;
29500;SDS011;16450;50.288;10.966;2022-08-16T06:38:25;6.80;;;2.90;;
29500;SDS011;16450;50.288;10.966;2022-08-16T06:41:27;4.28;;;3.08;;
29500;SDS011;16450;50.288;10.966;2022-08-16T06:44:27;4.40;;;2.92;;
29500;SDS011;16450;50.288;10.966;2022-08-16T06:47:28;4.78;;;2.95;;
29500;SDS011;16450;50.288;10.966;2022-08-16T06:50:28;2.88;;;2.53;;
29500;SDS011;16450;50.288;10.966;2022-08-16T06:53:29;4.70;;;3.08;;
29500;SDS011;16450;50.288;10.966;2022-08-16T06:56:33;3.78;;;2.83;;
29500;SDS011;16450;50.288;10.966;2022-08-16T06:59:34;3.47;;;2.80;;
29500;SDS011;16450;50.288;10.966;2022-08-16T07:02:34;4.47;;;2.70;;
29500;SDS011;16450;50.288;10.966;2022-08-16T07:05:35;3.80;;;2.80;;
29500;SDS011;16450;50.288;10.966;2022-08-16T07:08:35;3.60;;;2.72;;
29500;SDS011;16450;50.288;10.966;2022-08-16T07:11:36;8.00;;;3.83;;
29500;SDS011;16450;50.288;10.966;2022-08-16T07:14:37;5.00;;;3.63;;
29500;SDS011;16450;50.288;10.966;2022-08-16T07:17:38;3.97;;;2.72;;
29500;SDS011;16450;50.288;10.966;2022-08-16T07:20:38;4.93;;;2.88;;
29500;SDS011;16450;50.288;10.966;2022-08-16T07:23:40;4.90;;;2.88;;
29500;SDS011;16450;50.288;10.966;2022-08-16T07:26:45;4.78;;;2.90;;
29500;SDS011;16450;50.288;10.966;2022-08-16T07:29:46;3.72;;;3.00;;
29500;SDS011;16450;50.288;10.966;2022-08-16T07:32:47;7.10;;;3.00;;
29500;SDS011;16450;50.288;10.966;2022-08-16T07:35:49;3.70;;;3.03;;
29500;SDS011;16450;50.288;10.966;2022-08-16T07:38:50;5.07;;;3.00;;
29500;SDS011;16450;50.288;10.966;2022-08-16T07:41:51;5.28;;;2.97;;
29500;SDS011;16450;50.288;10.966;2022-08-16T07:44:52;2.92;;;2.63;;
29500;SDS011;16450;50.288;10.966;2022-08-16T07:47:52;3.55;;;2.42;;
29500;SDS011;16450;50.288;10.966;2022-08-16T07:50:54;3.92;;;2.40;;
29500;SDS011;16450;50.288;10.966;2022-08-16T07:53:55;4.07;;;2.45;;
29500;SDS011;16450;50.288;10.966;2022-08-16T07:56:55;4.18;;;2.50;;
29500;SDS011;16450;50.288;10.966;2022-08-16T07:59:56;3.45;;;2.90;;
29500;SDS011;16450;50.288;10.966;2022-08-16T08:02:56;3.00;;;2.70;;
29500;SDS011;16450;50.288;10.966;2022-08-16T08:05:59;4.85;;;2.60;;
29500;SDS011;16450;50.288;10.966;2022-08-16T08:09:00;3.80;;;2.35;;
29500;SDS011;16450;50.288;10.966;2022-08-16T08:12:02;4.85;;;2.80;;
29500;SDS011;16450;50.288;10.966;2022-08-16T08:15:07;3.40;;;2.60;;
29500;SDS011;16450;50.288;10.966;2022-08-16T08:18:10;3.40;;;2.60;;
29500;SDS011;16450;50.288;10.966;2022-08-16T08:21:11;5.53;;;2.60;;
29500;SDS011;16450;50.288;10.966;2022-08-16T08:24:12;6.93;;;2.70;;
29500;SDS011;16450;50.288;10.966;2022-08-16T08:27:14;4.03;;;2.90;;
29500;SDS011;16450;50.288;10.966;2022-08-16T08:30:14;4.30;;;2.70;;
29500;SDS011;16450;50.288;10.966;2022-08-16T08:33:15;3.58;;;2.55;;
29500;SDS011;16450;50.288;10.966;2022-08-16T08:36:21;5.30;;;2.95;;
29500;SDS011;16450;50.288;10.966;2022-08-16T08:39:25;3.22;;;2.50;;
29500;SDS011;16450;50.288;10.966;2022-08-16T08:42:25;3.08;;;2.20;;
29500;SDS011;16450;50.288;10.966;2022-08-16T08:45:28;2.65;;;2.38;;
29500;SDS011;16450;50.288;10.966;2022-08-16T08:48:29;4.18;;;2.40;;
29500;SDS011;16450;50.288;10.966;2022-08-16T08:51:30;3.30;;;2.35;;
29500;SDS011;16450;50.288;10.966;2022-08-16T08:54:31;2.92;;;2.67;;
29500;SDS011;16450;50.288;10.966;2022-08-16T08:57:32;3.33;;;2.25;;
29500;SDS011;16450;50.288;10.966;2022-08-16T09:00:33;4.80;;;2.40;;
29500;SDS011;16450;50.288;10.966;2022-08-16T09:03:34;2.67;;;2.30;;
29500;SDS011;16450;50.288;10.966;2022-08-16T09:06:35;4.63;;;2.80;;
29500;SDS011;16450;50.288;10.966;2022-08-16T09:09:37;4.50;;;2.83;;
29500;SDS011;16450;50.288;10.966;2022-08-16T09:12:39;6.15;;;4.10;;
29500;SDS011;16450;50.288;10.966;2022-08-16T09:15:41;6.35;;;3.30;;
29500;SDS011;16450;50.288;10.966;2022-08-16T09:18:43;5.72;;;2.70;;
29500;SDS011;16450;50.288;10.966;2022-08-16T09:21:44;4.50;;;3.03;;
29500;SDS011;16450;50.288;10.966;2022-08-16T09:24:48;3.88;;;2.63;;
29500;SDS011;16450;50.288;10.966;2022-08-16T09:27:50;3.38;;;2.80;;
29500;SDS011;16450;50.288;10.966;2022-08-16T09:30:51;2.90;;;2.60;;
29500;SDS011;16450;50.288;10.966;2022-08-16T09:33:52;3.85;;;2.50;;
29500;SDS011;16450;50.288;10.966;2022-08-16T09:36:53;4.18;;;2.60;;
29500;SDS011;16450;50.288;10.966;2022-08-16T09:39:57;2.80;;;2.47;;
29500;SDS011;16450;50.288;10.966;2022-08-16T09:42:58;3.75;;;3.10;;
29500;SDS011;16450;50.288;10.966;2022-08-16T09:45:59;4.07;;;2.63;;
29500;SDS011;16450;50.288;10.966;2022-08-16T09:49:01;3.55;;;2.50;;
29500;SDS011;16450;50.288;10.966;2022-08-16T09:52:02;3.47;;;2.92;;
29500;SDS011;16450;50.288;10.966;2022-08-16T09:55:04;5.75;;;3.30;;
29500;SDS011;16450;50.288;10.966;2022-08-16T09:58:09;5.47;;;2.97;;
29500;SDS011;16450;50.288;10.966;2022-08-16T10:01:10;4.82;;;2.78;;
29500;SDS011;16450;50.288;10.966;2022-08-16T10:04:10;2.92;;;2.33;;
29500;SDS011;16450;50.288;10.966;2022-08-16T10:07:11;4.45;;;2.97;;
29500;SDS011;16450;50.288;10.966;2022-08-16T10:10:13;4.53;;;2.67;;
29500;SDS011;16450;50.288;10.966;2022-08-16T10:13:13;2.85;;;2.42;;
29500;SDS011;16450;50.288;10.966;2022-08-16T10:16:14;2.40;;;2.10;;
29500;SDS011;16450;50.288;10.966;2022-08-16T10:19:15;2.70;;;2.50;;
29500;SDS011;16450;50.288;10.966;2022-08-16T10:22:16;4.10;;;2.80;;
29500;SDS011;16450;50.288;10.966;2022-08-16T10:25:20;6.90;;;2.78;;
29500;SDS011;16450;50.288;10.966;2022-08-16T10:28:21;3.33;;;2.60;;
29500;SDS011;16450;50.288;10.966;2022-08-16T10:31:22;2.95;;;2.40;;
29500;SDS011;16450;50.288;10.966;2022-08-16T10:34:23;6.47;;;2.70;;
29500;SDS011;16450;50.288;10.966;2022-08-16T10:37:23;4.03;;;2.28;;
29500;SDS011;16450;50.288;10.966;2022-08-16T10:40:24;4.72;;;2.42;;
29500;SDS011;16450;50.288;10.966;2022-08-16T10:43:25;5.47;;;2.15;;
29500;SDS011;16450;50.288;10.966;2022-08-16T10:46:25;3.15;;;2.30;;
29500;SDS011;16450;50.288;10.966;2022-08-16T10:49:26;5.85;;;2.50;;
29500;SDS011;16450;50.288;10.966;2022-08-16T10:52:28;3.00;;;2.53;;
29500;SDS011;16450;50.288;10.966;2022-08-16T10:55:28;2.83;;;2.20;;
29500;SDS011;16450;50.288;10.966;2022-08-16T10:58:29;4.50;;;2.67;;
29500;SDS011;16450;50.288;10.966;2022-08-16T11:01:30;9.43;;;2.83;;
29500;SDS011;16450;50.288;10.966;2022-08-16T11:04:31;2.75;;;2.47;;
29500;SDS011;16450;50.288;10.966;2022-08-16T11:07:31;4.95;;;2.42;;
29500;SDS011;16450;50.288;10.966;2022-08-16T11:10:33;2.83;;;2.40;;
29500;SDS011;16450;50.288;10.966;2022-08-16T11:13:35;2.35;;;2.15;;
29500;SDS011;16450;50.288;10.966;2022-08-16T11:16:36;2.67;;;2.47;;
29500;SDS011;16450;50.288;10.966;2022-08-16T11:19:38;2.95;;;2.25;;
29500;SDS011;16450;50.288;10.966;2022-08-16T11:22:40;2.45;;;2.25;;
29500;SDS011;16450;50.288;10.966;2022-08-16T11:25:42;2.38;;;2.17;;
29500;SDS011;16450;50.288;10.966;2022-08-16T11:28:43;3.40;;;2.30;;
29500;SDS011;16450;50.288;10.966;2022-08-16T11:31:43;2.50;;;2.30;;
29500;SDS011;16450;50.288;10.966;2022-08-16T11:34:46;2.88;;;2.50;;
29500;SDS011;16450;50.288;10.966;2022-08-16T11:37:58;3.60;;;2.20;;
29500;SDS011;16450;50.288;10.966;2022-08-16T11:41:10;4.10;;;2.30;;
29500;SDS011;16450;50.288;10.966;2022-08-16T11:44:11;4.25;;;2.58;;
29500;SDS011;16450;50.288;10.966;2022-08-16T11:47:12;2.78;;;2.17;;
29500;SDS011;16450;50.288;10.966;2022-08-16T11:50:12;2.95;;;2.60;;
29500;SDS011;16450;50.288;10.966;2022-08-16T11:53:13;4.32;;;2.63;;
29500;SDS011;16450;50.288;10.966;2022-08-16T11:56:14;3.13;;;2.40;;
29500;SDS011;16450;50.288;10.966;2022-08-16T11:59:15;3.13;;;2.42;;
29500;SDS011;16450;50.288;10.966;2022-08-16T12:02:18;3.05;;;2.40;;
29500;SDS011;16450;50.288;10.966;2022-08-16T12:05:19;6.82;;;2.50;;
29500;SDS011;16450;50.288;10.966;2022-08-16T12:08:20;4.10;;;2.38;;
29500;SDS011;16450;50.288;10.966;2022-08-16T12:11:21;2.33;;;2.05;;
29500;SDS011;16450;50.288;10.966;2022-08-16T12:14:22;3.45;;;2.20;;
29500;SDS011;16450;50.288;10.966;2022-08-16T12:17:23;4.18;;;2.50;;
29500;SDS011;16450;50.288;10.966;2022-08-16T12:20:25;4.43;;;2.40;;
29500;SDS011;16450;50.288;10.966;2022-08-16T12:23:27;2.55;;;2.35;;
29500;SDS011;16450;50.288;10.966;2022-08-16T12:26:28;2.78;;;2.30;;
29500;SDS011;16450;50.288;10.966;2022-08-16T12:29:28;3.05;;;2.20;;
29500;SDS011;16450;50.288;10.966;2022-08-16T12:32:29;2.83;;;2.30;;
29500;SDS011;16450;50.288;10.966;2022-08-16T12:35:31;2.65;;;2.15;;
29500;SDS011;16450;50.288;10.966;2022-08-16T12:38:32;2.70;;;2.40;;
29500;SDS011;16450;50.288;10.966;2022-08-16T12:41:33;4.00;;;2.45;;
29500;SDS011;16450;50.288;10.966;2022-08-16T12:44:36;3.20;;;2.53;;
29500;SDS011;16450;50.288;10.966;2022-08-16T12:47:40;3.13;;;2.22;;
29500;SDS011;16450;50.288;10.966;2022-08-16T12:51:00;3.00;;;2.58;;
29500;SDS011;16450;50.288;10.966;2022-08-16T12:54:04;3.65;;;2.58;;
29500;SDS011;16450;50.288;10.966;2022-08-16T12:57:08;3.55;;;2.50;;
29500;SDS011;16450;50.288;10.966;2022-08-16T13:00:11;3.83;;;2.40;;
29500;SDS011;16450;50.288;10.966;2022-08-16T13:03:15;3.53;;;2.50;;
29500;SDS011;16450;50.288;10.966;2022-08-16T13:06:16;3.00;;;2.70;;
29500;SDS011;16450;50.288;10.966;2022-08-16T13:09:16;3.72;;;2.60;;
29500;SDS011;16450;50.288;10.966;2022-08-16T13:12:19;3.45;;;2.70;;
29500;SDS011;16450;50.288;10.966;2022-08-16T13:15:26;3.17;;;2.42;;
29500;SDS011;16450;50.288;10.966;2022-08-16T13:18:28;3.25;;;2.55;;
29500;SDS011;16450;50.288;10.966;2022-08-16T13:21:29;4.63;;;2.80;;
29500;SDS011;16450;50.288;10.966;2022-08-16T13:24:29;2.80;;;2.45;;
29500;SDS011;16450;50.288;10.966;2022-08-16T13:27:30;3.20;;;2.50;;
29500;SDS011;16450;50.288;10.966;2022-08-16T13:30:35;3.42;;;2.70;;
29500;SDS011;16450;50.288;10.966;2022-08-16T13:33:45;2.50;;;2.30;;
29500;SDS011;16450;50.288;10.966;2022-08-16T13:36:46;3.20;;;2.40;;
29500;SDS011;16450;50.288;10.966;2022-08-16T13:39:46;4.13;;;2.53;;
29500;SDS011;16450;50.288;10.966;2022-08-16T13:42:47;2.78;;;2.30;;
29500;SDS011;16450;50.288;10.966;2022-08-16T13:45:48;3.78;;;2.40;;
29500;SDS011;16450;50.288;10.966;2022-08-16T13:48:49;3.70;;;2.60;;
29500;SDS011;16450;50.288;10.966;2022-08-16T13:51:49;2.97;;;2.70;;
29500;SDS011;16450;50.288;10.966;2022-08-16T13:54:50;2.65;;;2.00;;
29500;SDS011;16450;50.288;10.966;2022-08-16T13:57:51;8.23;;;2.60;;
29500;SDS011;16450;50.288;10.966;2022-08-16T14:00:51;3.63;;;2.58;;
29500;SDS011;16450;50.288;10.966;2022-08-16T14:03:52;2.63;;;2.08;;
29500;SDS011;16450;50.288;10.966;2022-08-16T14:06:54;2.60;;;2.40;;
29500;SDS011;16450;50.288;10.966;2022-08-16T14:09:58;3.15;;;2.50;;
29500;SDS011;16450;50.288;10.966;2022-08-16T14:12:59;2.90;;;2.60;;
29500;SDS011;16450;50.288;10.966;2022-08-16T14:16:00;4.63;;;2.10;;
29500;SDS011;16450;50.288;10.966;2022-08-16T14:19:02;3.53;;;2.50;;
29500;SDS011;16450;50.288;10.966;2022-08-16T14:22:05;3.45;;;2.22;;
29500;SDS011;16450;50.288;10.966;2022-08-16T14:25:08;4.40;;;2.47;;
29500;SDS011;16450;50.288;10.966;2022-08-16T14:28:12;3.55;;;2.33;;
29500;SDS011;16450;50.288;10.966;2022-08-16T14:31:13;3.95;;;2.33;;
29500;SDS011;16450;50.288;10.966;2022-08-16T14:34:13;5.05;;;2.70;;
29500;SDS011;16450;50.288;10.966;2022-08-16T14:37:14;3.30;;;2.30;;
29500;SDS011;16450;50.288;10.966;2022-08-16T14:40:16;3.63;;;2.22;;
29500;SDS011;16450;50.288;10.966;2022-08-16T14:43:18;2.65;;;2.45;;
29500;SDS011;16450;50.288;10.966;2022-08-16T14:46:18;3.45;;;2.40;;
29500;SDS011;16450;50.288;10.966;2022-08-16T14:49:19;3.65;;;2.40;;
29500;SDS011;16450;50.288;10.966;2022-08-16T14:52:21;2.78;;;2.25;;
29500;SDS011;16450;50.288;10.966;2022-08-16T14:55:22;3.17;;;2.40;;
29500;SDS011;16450;50.288;10.966;2022-08-16T14:58:25;5.55;;;2.25;;
29500;SDS011;16450;50.288;10.966;2022-08-16T15:01:25;2.35;;;2.15;;
29500;SDS011;16450;50.288;10.966;2022-08-16T15:04:27;2.83;;;2.20;;
29500;SDS011;16450;50.288;10.966;2022-08-16T15:07:29;4.15;;;2.50;;
29500;SDS011;16450;50.288;10.966;2022-08-16T15:10:30;2.50;;;2.30;;
29500;SDS011;16450;50.288;10.966;2022-08-16T15:13:31;3.15;;;2.70;;
29500;SDS011;16450;50.288;10.966;2022-08-16T15:16:32;5.32;;;2.60;;
29500;SDS011;16450;50.288;10.966;2022-08-16T15:19:33;4.68;;;2.38;;
29500;SDS011;16450;50.288;10.966;2022-08-16T15:22:35;2.97;;;2.20;;
29500;SDS011;16450;50.288;10.966;2022-08-16T15:25:43;3.78;;;2.65;;
29500;SDS011;16450;50.288;10.966;2022-08-16T15:28:46;5.53;;;2.58;;
29500;SDS011;16450;50.288;10.966;2022-08-16T15:31:47;4.03;;;2.30;;
29500;SDS011;16450;50.288;10.966;2022-08-16T15:34:48;5.78;;;2.47;;
29500;SDS011;16450;50.288;10.966;2022-08-16T15:37:48;2.38;;;2.17;;
29500;SDS011;16450;50.288;10.966;2022-08-16T15:40:51;3.20;;;2.00;;
29500;SDS011;16450;50.288;10.966;2022-08-16T15:43:51;3.13;;;2.20;;
29500;SDS011;16450;50.288;10.966;2022-08-16T15:46:52;3.42;;;2.28;;
29500;SDS011;16450;50.288;10.966;2022-08-16T15:49:54;3.55;;;2.50;;
29500;SDS011;16450;50.288;10.966;2022-08-16T15:52:57;4.13;;;2.35;;
29500;SDS011;16450;50.288;10.966;2022-08-16T15:56:00;2.60;;;2.40;;
29500;SDS011;16450;50.288;10.966;2022-08-16T15:59:02;4.55;;;2.63;;
29500;SDS011;16450;50.288;10.966;2022-08-16T16:02:03;3.83;;;2.53;;
29500;SDS011;16450;50.288;10.966;2022-08-16T16:05:04;3.00;;;2.20;;
29500;SDS011;16450;50.288;10.966;2022-08-16T16:08:06;2.80;;;2.45;;
29500;SDS011;16450;50.288;10.966;2022-08-16T16:11:07;5.50;;;2.50;;
29500;SDS011;16450;50.288;10.966;2022-08-16T16:14:08;2.65;;;2.45;;
29500;SDS011;16450;50.288;10.966;2022-08-16T16:17:09;3.00;;;2.40;;
29500;SDS011;16450;50.288;10.966;2022-08-16T16:20:10;4.80;;;2.47;;
29500;SDS011;16450;50.288;10.966;2022-08-16T16:23:11;4.10;;;2.38;;
29500;SDS011;16450;50.288;10.966;2022-08-16T16:26:13;3.03;;;2.20;;
29500;SDS011;16450;50.288;10.966;2022-08-16T16:29:14;2.65;;;2.25;;
29500;SDS011;16450;50.288;10.966;2022-08-16T16:32:15;2.67;;;2.28;;
29500;SDS011;16450;50.288;10.966;2022-08-16T16:35:16;2.97;;;2.50;;
29500;SDS011;16450;50.288;10.966;2022-08-16T16:38:17;6.68;;;2.50;;
29500;SDS011;16450;50.288;10.966;2022-08-16T16:41:22;3.83;;;2.30;;
29500;SDS011;16450;50.288;10.966;2022-08-16T16:44:24;4.28;;;2.80;;
29500;SDS011;16450;50.288;10.966;2022-08-16T16:47:25;3.85;;;2.72;;
29500;SDS011;16450;50.288;10.966;2022-08-16T16:50:25;4.28;;;3.05;;
29500;SDS011;16450;50.288;10.966;2022-08-16T16:53:28;3.20;;;2.35;;
29500;SDS011;16450;50.288;10.966;2022-08-16T16:56:28;3.30;;;2.45;;
29500;SDS011;16450;50.288;10.966;2022-08-16T16:59:34;4.15;;;2.50;;
29500;SDS011;16450;50.288;10.966;2022-08-16T17:02:35;3.45;;;2.95;;
29500;SDS011;16450;50.288;10.966;2022-08-16T17:05:36;2.70;;;2.50;;
29500;SDS011;16450;50.288;10.966;2022-08-16T17:08:38;2.63;;;2.40;;
29500;SDS011;16450;50.288;10.966;2022-08-16T17:11:40;2.95;;;2.63;;
29500;SDS011;16450;50.288;10.966;2022-08-16T17:14:43;3.47;;;2.55;;
29500;SDS011;16450;50.288;10.966;2022-08-16T17:17:44;3.78;;;2.50;;
29500;SDS011;16450;50.288;10.966;2022-08-16T17:20:45;5.65;;;2.53;;
29500;SDS011;16450;50.288;10.966;2022-08-16T17:23:46;5.07;;;2.40;;
29500;SDS011;16450;50.288;10.966;2022-08-16T17:26:47;3.83;;;2.70;;
29500;SDS011;16450;50.288;10.966;2022-08-16T17:29:48;3.53;;;2.50;;
29500;SDS011;16450;50.288;10.966;2022-08-16T17:32:50;3.03;;;2.72;;
29500;SDS011;16450;50.288;10.966;2022-08-16T17:35:53;5.18;;;2.80;;
29500;SDS011;16450;50.288;10.966;2022-08-16T17:38:54;2.92;;;2.50;;
29500;SDS011;16450;50.288;10.966;2022-08-16T17:41:59;6.03;;;2.45;;
29500;SDS011;16450;50.288;10.966;2022-08-16T17:45:01;3.83;;;2.72;;
29500;SDS011;16450;50.288;10.966;2022-08-16T17:48:03;3.20;;;2.40;;
29500;SDS011;16450;50.288;10.966;2022-08-16T17:51:04;2.45;;;2.25;;
29500;SDS011;16450;50.288;10.966;2022-08-16T17:54:05;2.67;;;2.42;;
29500;SDS011;16450;50.288;10.966;2022-08-16T17:57:06;3.65;;;2.70;;
29500;SDS011;16450;50.288;10.966;2022-08-16T18:00:08;2.95;;;2.60;;